sensor_id;sensor_type;location;lat;lon;timestamp;P1;durP1;ratioP1;P2;durP2;ratioP2
70951;SDS011;69214;55.880;37.542;2023-09-18T00:00:59;5.43;;;2.17;;
70951;SDS011;69214;55.880;37.542;2023-09-18T00:03:25;7.28;;;2.22;;
70951;SDS011;69214;55.880;37.542;2023-09-18T00:05:52;6.32;;;2.30;;
70951;SDS011;69214;55.880;37.542;2023-09-18T00:08:19;7.07;;;2.43;;
70951;SDS011;69214;55.880;37.542;2023-09-18T00:10:51;7.20;;;2.17;;
70951;SDS011;69214;55.880;37.542;2023-09-18T00:13:19;6.35;;;2.28;;
70951;SDS011;69214;55.880;37.542;2023-09-18T00:15:45;5.80;;;2.30;;
70951;SDS011;69214;55.880;37.542;2023-09-18T00:18:15;6.68;;;2.47;;
70951;SDS011;69214;55.880;37.542;2023-09-18T00:20:43;6.17;;;2.17;;
70951;SDS011;69214;55.880;37.542;2023-09-18T00:23:09;7.38;;;2.05;;
70951;SDS011;69214;55.880;37.542;2023-09-18T00:25:36;6.22;;;2.20;;
70951;SDS011;69214;55.880;37.542;2023-09-18T00:28:08;5.68;;;2.20;;
70951;SDS011;69214;55.880;37.542;2023-09-18T00:30:34;7.05;;;2.10;;
70951;SDS011;69214;55.880;37.542;2023-09-18T00:33:00;6.63;;;2.03;;
70951;SDS011;69214;55.880;37.542;2023-09-18T00:35:26;5.82;;;1.90;;
70951;SDS011;69214;55.880;37.542;2023-09-18T00:37:52;5.97;;;2.03;;
70951;SDS011;69214;55.880;37.542;2023-09-18T00:40:20;4.82;;;1.75;;
70951;SDS011;69214;55.880;37.542;2023-09-18T00:42:46;5.00;;;1.70;;
70951;SDS011;69214;55.880;37.542;2023-09-18T00:45:13;5.90;;;2.10;;
70951;SDS011;69214;55.880;37.542;2023-09-18T00:47:39;7.35;;;1.90;;
70951;SDS011;69214;55.880;37.542;2023-09-18T00:50:06;6.25;;;2.00;;
70951;SDS011;69214;55.880;37.542;2023-09-18T00:52:35;5.35;;;1.60;;
70951;SDS011;69214;55.880;37.542;2023-09-18T00:55:01;4.57;;;1.67;;
70951;SDS011;69214;55.880;37.542;2023-09-18T00:57:31;6.13;;;1.98;;
70951;SDS011;69214;55.880;37.542;2023-09-18T00:59:57;5.10;;;1.90;;
70951;SDS011;69214;55.880;37.542;2023-09-18T01:02:24;6.30;;;2.13;;
70951;SDS011;69214;55.880;37.542;2023-09-18T01:04:50;5.10;;;1.90;;
70951;SDS011;69214;55.880;37.542;2023-09-18T01:07:16;5.60;;;1.87;;
70951;SDS011;69214;55.880;37.542;2023-09-18T01:09:42;7.03;;;2.00;;
70951;SDS011;69214;55.880;37.542;2023-09-18T01:14:50;5.53;;;1.75;;
70951;SDS011;69214;55.880;37.542;2023-09-18T01:17:35;8.02;;;2.33;;
70951;SDS011;69214;55.880;37.542;2023-09-18T01:20:08;4.50;;;1.60;;
70951;SDS011;69214;55.880;37.542;2023-09-18T01:22:35;5.78;;;2.08;;
70951;SDS011;69214;55.880;37.542;2023-09-18T01:25:01;5.90;;;1.77;;
70951;SDS011;69214;55.880;37.542;2023-09-18T01:27:31;5.25;;;1.77;;
70951;SDS011;69214;55.880;37.542;2023-09-18T01:29:57;5.63;;;1.60;;
70951;SDS011;69214;55.880;37.542;2023-09-18T01:32:23;5.85;;;1.65;;
70951;SDS011;69214;55.880;37.542;2023-09-18T01:34:54;5.70;;;1.80;;
70951;SDS011;69214;55.880;37.542;2023-09-18T01:37:25;4.72;;;1.70;;
70951;SDS011;69214;55.880;37.542;2023-09-18T01:39:53;4.95;;;2.00;;
70951;SDS011;69214;55.880;37.542;2023-09-18T01:42:20;4.57;;;1.57;;
70951;SDS011;69214;55.880;37.542;2023-09-18T01:44:47;3.95;;;1.40;;
70951;SDS011;69214;55.880;37.542;2023-09-18T01:47:14;6.15;;;1.80;;
70951;SDS011;69214;55.880;37.542;2023-09-18T01:49:43;3.47;;;1.40;;
70951;SDS011;69214;55.880;37.542;2023-09-18T01:52:09;6.33;;;1.80;;
70951;SDS011;69214;55.880;37.542;2023-09-18T01:54:36;4.10;;;1.53;;
70951;SDS011;69214;55.880;37.542;2023-09-18T01:57:02;6.70;;;1.60;;
70951;SDS011;69214;55.880;37.542;2023-09-18T01:59:28;4.68;;;1.75;;
70951;SDS011;69214;55.880;37.542;2023-09-18T02:01:54;5.03;;;1.48;;
70951;SDS011;69214;55.880;37.542;2023-09-18T02:04:21;4.90;;;1.73;;
70951;SDS011;69214;55.880;37.542;2023-09-18T02:06:49;5.70;;;1.90;;
70951;SDS011;69214;55.880;37.542;2023-09-18T02:09:16;5.00;;;1.65;;
70951;SDS011;69214;55.880;37.542;2023-09-18T02:11:44;3.88;;;1.40;;
70951;SDS011;69214;55.880;37.542;2023-09-18T02:14:15;5.13;;;1.45;;
70951;SDS011;69214;55.880;37.542;2023-09-18T02:16:43;4.85;;;1.85;;
70951;SDS011;69214;55.880;37.542;2023-09-18T02:19:13;5.07;;;1.80;;
70951;SDS011;69214;55.880;37.542;2023-09-18T02:21:40;7.35;;;2.00;;
70951;SDS011;69214;55.880;37.542;2023-09-18T02:24:07;4.82;;;1.73;;
70951;SDS011;69214;55.880;37.542;2023-09-18T02:26:34;5.65;;;1.75;;
70951;SDS011;69214;55.880;37.542;2023-09-18T02:29:02;5.55;;;1.70;;
70951;SDS011;69214;55.880;37.542;2023-09-18T02:31:30;4.67;;;1.73;;
70951;SDS011;69214;55.880;37.542;2023-09-18T02:33:57;5.65;;;1.70;;
70951;SDS011;69214;55.880;37.542;2023-09-18T02:36:23;3.83;;;1.33;;
70951;SDS011;69214;55.880;37.542;2023-09-18T02:38:49;6.70;;;1.80;;
70951;SDS011;69214;55.880;37.542;2023-09-18T02:41:15;4.22;;;1.52;;
70951;SDS011;69214;55.880;37.542;2023-09-18T02:43:41;4.20;;;1.67;;
70951;SDS011;69214;55.880;37.542;2023-09-18T02:46:08;5.10;;;1.75;;
70951;SDS011;69214;55.880;37.542;2023-09-18T02:48:35;6.00;;;2.13;;
70951;SDS011;69214;55.880;37.542;2023-09-18T02:51:02;5.50;;;1.70;;
70951;SDS011;69214;55.880;37.542;2023-09-18T02:53:29;4.90;;;1.75;;
70951;SDS011;69214;55.880;37.542;2023-09-18T02:55:58;6.70;;;1.63;;
70951;SDS011;69214;55.880;37.542;2023-09-18T02:58:25;4.78;;;1.60;;
70951;SDS011;69214;55.880;37.542;2023-09-18T03:00:53;5.20;;;1.83;;
70951;SDS011;69214;55.880;37.542;2023-09-18T03:03:20;5.70;;;1.52;;
70951;SDS011;69214;55.880;37.542;2023-09-18T03:05:47;5.88;;;2.08;;
70951;SDS011;69214;55.880;37.542;2023-09-18T03:08:14;5.23;;;1.70;;
70951;SDS011;69214;55.880;37.542;2023-09-18T03:10:41;4.80;;;1.67;;
70951;SDS011;69214;55.880;37.542;2023-09-18T03:13:10;6.00;;;2.00;;
70951;SDS011;69214;55.880;37.542;2023-09-18T03:15:37;5.90;;;2.15;;
70951;SDS011;69214;55.880;37.542;2023-09-18T03:18:03;5.90;;;1.73;;
70951;SDS011;69214;55.880;37.542;2023-09-18T03:20:31;5.20;;;1.80;;
70951;SDS011;69214;55.880;37.542;2023-09-18T03:22:59;5.35;;;1.55;;
70951;SDS011;69214;55.880;37.542;2023-09-18T03:25:27;4.28;;;1.60;;
70951;SDS011;69214;55.880;37.542;2023-09-18T03:27:54;4.80;;;1.38;;
70951;SDS011;69214;55.880;37.542;2023-09-18T03:30:24;7.70;;;1.70;;
70951;SDS011;69214;55.880;37.542;2023-09-18T03:32:51;5.53;;;1.67;;
70951;SDS011;69214;55.880;37.542;2023-09-18T03:35:19;5.18;;;1.42;;
70951;SDS011;69214;55.880;37.542;2023-09-18T03:37:48;4.50;;;1.63;;
70951;SDS011;69214;55.880;37.542;2023-09-18T03:40:15;5.43;;;1.75;;
70951;SDS011;69214;55.880;37.542;2023-09-18T03:42:42;4.85;;;1.38;;
70951;SDS011;69214;55.880;37.542;2023-09-18T03:45:09;5.37;;;1.63;;
70951;SDS011;69214;55.880;37.542;2023-09-18T03:47:36;4.45;;;1.50;;
70951;SDS011;69214;55.880;37.542;2023-09-18T03:50:11;4.28;;;1.30;;
70951;SDS011;69214;55.880;37.542;2023-09-18T03:52:38;8.77;;;2.00;;
70951;SDS011;69214;55.880;37.542;2023-09-18T03:55:07;4.57;;;1.40;;
70951;SDS011;69214;55.880;37.542;2023-09-18T03:57:34;5.23;;;1.43;;
70951;SDS011;69214;55.880;37.542;2023-09-18T04:00:00;4.50;;;1.30;;
70951;SDS011;69214;55.880;37.542;2023-09-18T04:02:26;5.70;;;1.77;;
70951;SDS011;69214;55.880;37.542;2023-09-18T04:04:55;4.75;;;1.60;;
70951;SDS011;69214;55.880;37.542;2023-09-18T04:07:22;4.37;;;1.50;;
70951;SDS011;69214;55.880;37.542;2023-09-18T04:09:48;6.53;;;1.50;;
70951;SDS011;69214;55.880;37.542;2023-09-18T04:12:14;5.47;;;1.58;;
70951;SDS011;69214;55.880;37.542;2023-09-18T04:14:41;5.43;;;1.40;;
70951;SDS011;69214;55.880;37.542;2023-09-18T04:17:07;5.22;;;1.50;;
70951;SDS011;69214;55.880;37.542;2023-09-18T04:19:33;4.63;;;1.57;;
70951;SDS011;69214;55.880;37.542;2023-09-18T04:21:59;5.72;;;1.90;;
70951;SDS011;69214;55.880;37.542;2023-09-18T04:24:25;6.38;;;1.40;;
70951;SDS011;69214;55.880;37.542;2023-09-18T04:26:52;6.72;;;1.63;;
70951;SDS011;69214;55.880;37.542;2023-09-18T04:29:18;4.23;;;1.40;;
70951;SDS011;69214;55.880;37.542;2023-09-18T04:31:45;5.03;;;1.80;;
70951;SDS011;69214;55.880;37.542;2023-09-18T04:34:13;5.18;;;1.65;;
70951;SDS011;69214;55.880;37.542;2023-09-18T04:36:40;4.15;;;1.40;;
70951;SDS011;69214;55.880;37.542;2023-09-18T04:39:07;4.93;;;1.55;;
70951;SDS011;69214;55.880;37.542;2023-09-18T04:41:35;4.73;;;1.50;;
70951;SDS011;69214;55.880;37.542;2023-09-18T04:44:03;3.97;;;1.50;;
70951;SDS011;69214;55.880;37.542;2023-09-18T04:46:31;5.53;;;1.63;;
70951;SDS011;69214;55.880;37.542;2023-09-18T04:48:57;6.00;;;1.42;;
70951;SDS011;69214;55.880;37.542;2023-09-18T04:51:22;4.50;;;1.40;;
70951;SDS011;69214;55.880;37.542;2023-09-18T04:53:49;2.78;;;1.05;;
70951;SDS011;69214;55.880;37.542;2023-09-18T04:56:14;4.20;;;1.30;;
70951;SDS011;69214;55.880;37.542;2023-09-18T04:58:40;3.95;;;1.52;;
70951;SDS011;69214;55.880;37.542;2023-09-18T05:01:06;4.93;;;1.37;;
70951;SDS011;69214;55.880;37.542;2023-09-18T05:03:35;4.25;;;1.40;;
70951;SDS011;69214;55.880;37.542;2023-09-18T05:06:02;3.13;;;1.02;;
70951;SDS011;69214;55.880;37.542;2023-09-18T05:08:28;4.95;;;1.55;;
70951;SDS011;69214;55.880;37.542;2023-09-18T05:10:54;4.27;;;1.20;;
70951;SDS011;69214;55.880;37.542;2023-09-18T05:13:21;3.10;;;1.20;;
70951;SDS011;69214;55.880;37.542;2023-09-18T05:15:46;3.70;;;1.27;;
70951;SDS011;69214;55.880;37.542;2023-09-18T05:18:13;3.55;;;1.10;;
70951;SDS011;69214;55.880;37.542;2023-09-18T05:20:39;3.97;;;1.57;;
70951;SDS011;69214;55.880;37.542;2023-09-18T05:23:06;2.83;;;1.20;;
70951;SDS011;69214;55.880;37.542;2023-09-18T05:25:33;3.28;;;1.20;;
70951;SDS011;69214;55.880;37.542;2023-09-18T05:28:04;4.78;;;1.33;;
70951;SDS011;69214;55.880;37.542;2023-09-18T05:30:32;2.63;;;0.90;;
70951;SDS011;69214;55.880;37.542;2023-09-18T05:33:04;4.43;;;1.05;;
70951;SDS011;69214;55.880;37.542;2023-09-18T05:37:59;3.00;;;1.02;;
70951;SDS011;69214;55.880;37.542;2023-09-18T05:40:25;3.30;;;1.23;;
70951;SDS011;69214;55.880;37.542;2023-09-18T05:42:55;4.07;;;1.27;;
70951;SDS011;69214;55.880;37.542;2023-09-18T05:45:22;3.58;;;1.02;;
70951;SDS011;69214;55.880;37.542;2023-09-18T05:47:48;3.40;;;1.10;;
70951;SDS011;69214;55.880;37.542;2023-09-18T05:50:16;3.60;;;1.27;;
70951;SDS011;69214;55.880;37.542;2023-09-18T05:52:43;4.70;;;1.23;;
70951;SDS011;69214;55.880;37.542;2023-09-18T05:55:10;2.90;;;0.83;;
70951;SDS011;69214;55.880;37.542;2023-09-18T05:57:36;2.97;;;1.10;;
70951;SDS011;69214;55.880;37.542;2023-09-18T06:00:02;5.35;;;1.50;;
70951;SDS011;69214;55.880;37.542;2023-09-18T06:02:38;3.40;;;1.20;;
70951;SDS011;69214;55.880;37.542;2023-09-18T06:05:04;3.97;;;1.50;;
70951;SDS011;69214;55.880;37.542;2023-09-18T06:07:31;4.83;;;1.23;;
70951;SDS011;69214;55.880;37.542;2023-09-18T06:09:57;3.20;;;1.10;;
70951;SDS011;69214;55.880;37.542;2023-09-18T06:12:24;5.18;;;1.30;;
70951;SDS011;69214;55.880;37.542;2023-09-18T06:14:50;3.30;;;1.10;;
70951;SDS011;69214;55.880;37.542;2023-09-18T06:17:16;3.10;;;1.27;;
70951;SDS011;69214;55.880;37.542;2023-09-18T06:19:43;5.43;;;1.50;;
70951;SDS011;69214;55.880;37.542;2023-09-18T06:22:11;3.00;;;1.10;;
70951;SDS011;69214;55.880;37.542;2023-09-18T06:24:37;3.30;;;1.30;;
70951;SDS011;69214;55.880;37.542;2023-09-18T06:27:04;4.28;;;1.67;;
70951;SDS011;69214;55.880;37.542;2023-09-18T06:29:30;3.92;;;1.27;;
70951;SDS011;69214;55.880;37.542;2023-09-18T06:31:57;4.97;;;1.30;;
70951;SDS011;69214;55.880;37.542;2023-09-18T06:34:23;3.80;;;1.15;;
70951;SDS011;69214;55.880;37.542;2023-09-18T06:36:49;5.25;;;1.33;;
70951;SDS011;69214;55.880;37.542;2023-09-18T06:39:15;5.83;;;1.17;;
70951;SDS011;69214;55.880;37.542;2023-09-18T06:41:40;3.63;;;1.38;;
70951;SDS011;69214;55.880;37.542;2023-09-18T06:44:06;5.22;;;1.60;;
70951;SDS011;69214;55.880;37.542;2023-09-18T06:46:32;5.55;;;1.00;;
70951;SDS011;69214;55.880;37.542;2023-09-18T06:48:58;4.22;;;1.33;;
70951;SDS011;69214;55.880;37.542;2023-09-18T06:51:26;4.03;;;0.97;;
70951;SDS011;69214;55.880;37.542;2023-09-18T06:53:55;3.20;;;1.27;;
70951;SDS011;69214;55.880;37.542;2023-09-18T06:56:28;4.55;;;1.45;;
70951;SDS011;69214;55.880;37.542;2023-09-18T06:58:55;4.18;;;1.40;;
70951;SDS011;69214;55.880;37.542;2023-09-18T07:01:22;5.20;;;1.60;;
70951;SDS011;69214;55.880;37.542;2023-09-18T07:03:50;6.73;;;1.33;;
70951;SDS011;69214;55.880;37.542;2023-09-18T07:06:16;4.53;;;1.40;;
70951;SDS011;69214;55.880;37.542;2023-09-18T07:08:44;4.43;;;1.40;;
70951;SDS011;69214;55.880;37.542;2023-09-18T07:11:10;4.43;;;1.60;;
70951;SDS011;69214;55.880;37.542;2023-09-18T07:13:38;3.67;;;1.33;;
70951;SDS011;69214;55.880;37.542;2023-09-18T07:16:05;6.47;;;1.40;;
70951;SDS011;69214;55.880;37.542;2023-09-18T07:18:31;5.80;;;1.70;;
70951;SDS011;69214;55.880;37.542;2023-09-18T07:20:58;3.85;;;1.20;;
70951;SDS011;69214;55.880;37.542;2023-09-18T07:23:24;4.45;;;1.25;;
70951;SDS011;69214;55.880;37.542;2023-09-18T07:25:50;4.97;;;1.60;;
70951;SDS011;69214;55.880;37.542;2023-09-18T07:28:16;4.70;;;1.63;;
70951;SDS011;69214;55.880;37.542;2023-09-18T07:30:44;5.07;;;1.30;;
70951;SDS011;69214;55.880;37.542;2023-09-18T07:33:11;6.40;;;1.37;;
70951;SDS011;69214;55.880;37.542;2023-09-18T07:35:37;4.05;;;1.35;;
70951;SDS011;69214;55.880;37.542;2023-09-18T07:38:03;4.00;;;1.38;;
70951;SDS011;69214;55.880;37.542;2023-09-18T07:40:30;4.53;;;1.40;;
70951;SDS011;69214;55.880;37.542;2023-09-18T07:42:56;5.35;;;1.60;;
70951;SDS011;69214;55.880;37.542;2023-09-18T07:45:22;4.97;;;1.50;;
70951;SDS011;69214;55.880;37.542;2023-09-18T07:47:49;3.80;;;1.30;;
70951;SDS011;69214;55.880;37.542;2023-09-18T07:50:15;5.25;;;1.63;;
70951;SDS011;69214;55.880;37.542;2023-09-18T07:52:42;5.57;;;1.50;;
70951;SDS011;69214;55.880;37.542;2023-09-18T07:55:08;8.07;;;2.00;;
70951;SDS011;69214;55.880;37.542;2023-09-18T07:57:35;5.32;;;1.80;;
70951;SDS011;69214;55.880;37.542;2023-09-18T08:00:04;4.32;;;1.70;;
70951;SDS011;69214;55.880;37.542;2023-09-18T08:02:39;5.93;;;1.60;;
70951;SDS011;69214;55.880;37.542;2023-09-18T08:05:06;6.63;;;1.83;;
70951;SDS011;69214;55.880;37.542;2023-09-18T08:07:35;5.00;;;1.53;;
70951;SDS011;69214;55.880;37.542;2023-09-18T08:10:03;5.43;;;1.50;;
70951;SDS011;69214;55.880;37.542;2023-09-18T08:12:34;8.40;;;2.08;;
70951;SDS011;69214;55.880;37.542;2023-09-18T08:15:00;6.97;;;1.70;;
70951;SDS011;69214;55.880;37.542;2023-09-18T08:17:31;5.70;;;1.98;;
70951;SDS011;69214;55.880;37.542;2023-09-18T08:19:57;5.87;;;2.00;;
70951;SDS011;69214;55.880;37.542;2023-09-18T08:22:24;6.25;;;2.00;;
70951;SDS011;69214;55.880;37.542;2023-09-18T08:24:51;5.78;;;2.10;;
70951;SDS011;69214;55.880;37.542;2023-09-18T08:27:19;6.55;;;1.90;;
70951;SDS011;69214;55.880;37.542;2023-09-18T08:29:45;5.38;;;1.70;;
70951;SDS011;69214;55.880;37.542;2023-09-18T08:32:12;6.17;;;2.13;;
70951;SDS011;69214;55.880;37.542;2023-09-18T08:34:38;6.93;;;2.33;;
70951;SDS011;69214;55.880;37.542;2023-09-18T08:37:04;5.30;;;2.25;;
70951;SDS011;69214;55.880;37.542;2023-09-18T08:39:30;6.57;;;2.50;;
70951;SDS011;69214;55.880;37.542;2023-09-18T08:42:03;5.20;;;1.83;;
70951;SDS011;69214;55.880;37.542;2023-09-18T08:44:30;6.25;;;1.98;;
70951;SDS011;69214;55.880;37.542;2023-09-18T08:46:57;5.47;;;2.10;;
70951;SDS011;69214;55.880;37.542;2023-09-18T08:49:24;6.60;;;2.60;;
70951;SDS011;69214;55.880;37.542;2023-09-18T08:51:53;6.40;;;2.42;;
70951;SDS011;69214;55.880;37.542;2023-09-18T08:54:21;7.00;;;2.27;;
70951;SDS011;69214;55.880;37.542;2023-09-18T08:56:51;7.90;;;2.35;;
70951;SDS011;69214;55.880;37.542;2023-09-18T08:59:17;6.43;;;2.08;;
70951;SDS011;69214;55.880;37.542;2023-09-18T09:01:47;5.15;;;1.90;;
70951;SDS011;69214;55.880;37.542;2023-09-18T09:04:13;6.90;;;2.20;;
70951;SDS011;69214;55.880;37.542;2023-09-18T09:06:39;5.63;;;1.90;;
70951;SDS011;69214;55.880;37.542;2023-09-18T09:09:04;3.75;;;1.40;;
70951;SDS011;69214;55.880;37.542;2023-09-18T09:11:30;4.17;;;1.60;;
70951;SDS011;69214;55.880;37.542;2023-09-18T09:14:09;5.03;;;1.60;;
70951;SDS011;69214;55.880;37.542;2023-09-18T09:16:38;4.55;;;1.63;;
70951;SDS011;69214;55.880;37.542;2023-09-18T09:19:05;4.60;;;1.48;;
70951;SDS011;69214;55.880;37.542;2023-09-18T09:21:41;5.55;;;1.70;;
70951;SDS011;69214;55.880;37.542;2023-09-18T09:24:10;4.43;;;1.45;;
70951;SDS011;69214;55.880;37.542;2023-09-18T09:26:39;5.87;;;1.87;;
70951;SDS011;69214;55.880;37.542;2023-09-18T09:29:16;5.13;;;2.00;;
70951;SDS011;69214;55.880;37.542;2023-09-18T09:31:44;4.38;;;1.75;;
70951;SDS011;69214;55.880;37.542;2023-09-18T09:34:24;5.88;;;1.92;;
70951;SDS011;69214;55.880;37.542;2023-09-18T09:36:55;5.78;;;2.17;;
70951;SDS011;69214;55.880;37.542;2023-09-18T09:39:21;5.77;;;1.70;;
70951;SDS011;69214;55.880;37.542;2023-09-18T09:41:51;6.18;;;2.00;;
70951;SDS011;69214;55.880;37.542;2023-09-18T09:44:17;4.13;;;1.60;;
70951;SDS011;69214;55.880;37.542;2023-09-18T09:46:48;4.28;;;1.70;;
70951;SDS011;69214;55.880;37.542;2023-09-18T09:49:14;5.68;;;1.58;;
70951;SDS011;69214;55.880;37.542;2023-09-18T09:51:42;4.13;;;1.50;;
70951;SDS011;69214;55.880;37.542;2023-09-18T09:54:08;4.70;;;1.70;;
70951;SDS011;69214;55.880;37.542;2023-09-18T09:56:47;4.03;;;1.63;;
70951;SDS011;69214;55.880;37.542;2023-09-18T09:59:16;5.40;;;1.60;;
70951;SDS011;69214;55.880;37.542;2023-09-18T10:01:47;5.22;;;1.70;;
70951;SDS011;69214;55.880;37.542;2023-09-18T10:04:17;4.83;;;2.00;;
70951;SDS011;69214;55.880;37.542;2023-09-18T10:06:52;4.47;;;1.80;;
70951;SDS011;69214;55.880;37.542;2023-09-18T10:09:22;6.20;;;1.85;;
70951;SDS011;69214;55.880;37.542;2023-09-18T10:11:52;4.13;;;1.40;;
70951;SDS011;69214;55.880;37.542;2023-09-18T10:14:23;4.63;;;1.30;;
70951;SDS011;69214;55.880;37.542;2023-09-18T10:17:12;4.13;;;1.70;;
70951;SDS011;69214;55.880;37.542;2023-09-18T10:22:29;4.55;;;1.52;;
70951;SDS011;69214;55.880;37.542;2023-09-18T10:25:13;5.07;;;1.73;;
70951;SDS011;69214;55.880;37.542;2023-09-18T10:27:48;6.63;;;1.52;;
70951;SDS011;69214;55.880;37.542;2023-09-18T10:30:17;4.87;;;1.90;;
70951;SDS011;69214;55.880;37.542;2023-09-18T10:32:45;4.72;;;1.65;;
70951;SDS011;69214;55.880;37.542;2023-09-18T10:35:13;5.00;;;1.50;;
70951;SDS011;69214;55.880;37.542;2023-09-18T10:37:41;4.68;;;1.70;;
70951;SDS011;69214;55.880;37.542;2023-09-18T10:40:10;3.67;;;1.52;;
70951;SDS011;69214;55.880;37.542;2023-09-18T10:42:38;6.37;;;1.97;;
70951;SDS011;69214;55.880;37.542;2023-09-18T10:45:05;5.78;;;1.90;;
70951;SDS011;69214;55.880;37.542;2023-09-18T10:47:37;5.43;;;1.83;;
70951;SDS011;69214;55.880;37.542;2023-09-18T10:50:05;5.88;;;1.88;;
70951;SDS011;69214;55.880;37.542;2023-09-18T10:52:38;5.38;;;2.05;;
70951;SDS011;69214;55.880;37.542;2023-09-18T10:55:13;5.77;;;2.10;;
70951;SDS011;69214;55.880;37.542;2023-09-18T10:57:49;10.18;;;2.20;;
70951;SDS011;69214;55.880;37.542;2023-09-18T11:00:30;4.82;;;1.60;;
70951;SDS011;69214;55.880;37.542;2023-09-18T11:03:10;4.93;;;1.95;;
70951;SDS011;69214;55.880;37.542;2023-09-18T11:05:37;5.28;;;2.00;;
70951;SDS011;69214;55.880;37.542;2023-09-18T11:11:09;4.88;;;1.95;;
70951;SDS011;69214;55.880;37.542;2023-09-18T11:18:51;5.10;;;2.00;;
70951;SDS011;69214;55.880;37.542;2023-09-18T11:21:27;8.38;;;2.00;;
70951;SDS011;69214;55.880;37.542;2023-09-18T11:26:54;4.85;;;1.95;;
70951;SDS011;69214;55.880;37.542;2023-09-18T11:29:22;5.68;;;1.70;;
70951;SDS011;69214;55.880;37.542;2023-09-18T11:31:52;4.80;;;1.80;;
70951;SDS011;69214;55.880;37.542;2023-09-18T11:34:21;4.43;;;1.77;;
70951;SDS011;69214;55.880;37.542;2023-09-18T11:36:48;5.43;;;1.73;;
70951;SDS011;69214;55.880;37.542;2023-09-18T11:39:32;9.13;;;1.70;;
70951;SDS011;69214;55.880;37.542;2023-09-18T11:42:09;4.18;;;1.70;;
70951;SDS011;69214;55.880;37.542;2023-09-18T11:44:43;4.57;;;1.60;;
70951;SDS011;69214;55.880;37.542;2023-09-18T11:47:16;5.60;;;1.77;;
70951;SDS011;69214;55.880;37.542;2023-09-18T11:49:55;4.30;;;1.63;;
70951;SDS011;69214;55.880;37.542;2023-09-18T11:52:24;5.75;;;2.05;;
70951;SDS011;69214;55.880;37.542;2023-09-18T11:54:52;7.38;;;2.78;;
70951;SDS011;69214;55.880;37.542;2023-09-18T11:57:20;3.73;;;1.40;;
70951;SDS011;69214;55.880;37.542;2023-09-18T11:59:46;6.40;;;1.40;;
70951;SDS011;69214;55.880;37.542;2023-09-18T12:02:13;4.90;;;1.35;;
70951;SDS011;69214;55.880;37.542;2023-09-18T12:04:46;5.03;;;2.00;;
70951;SDS011;69214;55.880;37.542;2023-09-18T12:07:13;4.85;;;1.63;;
70951;SDS011;69214;55.880;37.542;2023-09-18T12:09:39;5.63;;;1.70;;
70951;SDS011;69214;55.880;37.542;2023-09-18T12:12:05;5.15;;;1.88;;
70951;SDS011;69214;55.880;37.542;2023-09-18T12:14:33;5.25;;;1.80;;
70951;SDS011;69214;55.880;37.542;2023-09-18T12:17:00;4.22;;;1.60;;
70951;SDS011;69214;55.880;37.542;2023-09-18T12:19:30;4.97;;;1.70;;
70951;SDS011;69214;55.880;37.542;2023-09-18T12:21:56;3.92;;;1.70;;
70951;SDS011;69214;55.880;37.542;2023-09-18T12:24:23;5.50;;;1.90;;
70951;SDS011;69214;55.880;37.542;2023-09-18T12:26:53;6.47;;;1.55;;
70951;SDS011;69214;55.880;37.542;2023-09-18T12:29:21;6.78;;;1.90;;
70951;SDS011;69214;55.880;37.542;2023-09-18T12:31:47;4.63;;;1.93;;
70951;SDS011;69214;55.880;37.542;2023-09-18T12:34:19;5.63;;;2.15;;
70951;SDS011;69214;55.880;37.542;2023-09-18T12:36:47;4.95;;;1.88;;
70951;SDS011;69214;55.880;37.542;2023-09-18T12:39:14;6.07;;;1.98;;
70951;SDS011;69214;55.880;37.542;2023-09-18T12:41:46;4.20;;;1.50;;
70951;SDS011;69214;55.880;37.542;2023-09-18T12:44:12;5.60;;;1.97;;
70951;SDS011;69214;55.880;37.542;2023-09-18T12:46:43;5.97;;;2.08;;
70951;SDS011;69214;55.880;37.542;2023-09-18T12:49:20;5.68;;;1.80;;
70951;SDS011;69214;55.880;37.542;2023-09-18T12:51:57;4.43;;;1.70;;
70951;SDS011;69214;55.880;37.542;2023-09-18T12:54:37;5.10;;;2.08;;
70951;SDS011;69214;55.880;37.542;2023-09-18T12:57:07;5.13;;;1.90;;
70951;SDS011;69214;55.880;37.542;2023-09-18T12:59:34;5.68;;;1.80;;
70951;SDS011;69214;55.880;37.542;2023-09-18T13:02:02;6.10;;;2.50;;
70951;SDS011;69214;55.880;37.542;2023-09-18T13:04:38;4.90;;;2.20;;
70951;SDS011;69214;55.880;37.542;2023-09-18T13:07:11;5.00;;;1.73;;
70951;SDS011;69214;55.880;37.542;2023-09-18T13:09:39;5.50;;;1.90;;
70951;SDS011;69214;55.880;37.542;2023-09-18T13:12:06;4.65;;;1.70;;
70951;SDS011;69214;55.880;37.542;2023-09-18T13:17:44;4.90;;;1.80;;
70951;SDS011;69214;55.880;37.542;2023-09-18T13:20:11;5.15;;;2.00;;
70951;SDS011;69214;55.880;37.542;2023-09-18T13:22:47;6.77;;;1.90;;
70951;SDS011;69214;55.880;37.542;2023-09-18T13:25:18;4.78;;;2.00;;
70951;SDS011;69214;55.880;37.542;2023-09-18T13:27:46;8.60;;;2.38;;
70951;SDS011;69214;55.880;37.542;2023-09-18T13:30:11;6.88;;;2.28;;
70951;SDS011;69214;55.880;37.542;2023-09-18T13:32:42;5.83;;;2.20;;
70951;SDS011;69214;55.880;37.542;2023-09-18T13:35:09;5.88;;;2.30;;
70951;SDS011;69214;55.880;37.542;2023-09-18T13:37:39;5.45;;;2.00;;
70951;SDS011;69214;55.880;37.542;2023-09-18T13:40:05;6.28;;;2.20;;
70951;SDS011;69214;55.880;37.542;2023-09-18T13:42:33;4.88;;;2.05;;
70951;SDS011;69214;55.880;37.542;2023-09-18T13:44:58;7.70;;;2.13;;
70951;SDS011;69214;55.880;37.542;2023-09-18T13:47:33;7.88;;;3.75;;
70951;SDS011;69214;55.880;37.542;2023-09-18T13:50:00;6.38;;;1.63;;
70951;SDS011;69214;55.880;37.542;2023-09-18T13:52:32;4.40;;;1.90;;
70951;SDS011;69214;55.880;37.542;2023-09-18T13:54:59;5.28;;;1.58;;
70951;SDS011;69214;55.880;37.542;2023-09-18T13:57:26;4.93;;;1.63;;
70951;SDS011;69214;55.880;37.542;2023-09-18T13:59:52;5.75;;;1.40;;
70951;SDS011;69214;55.880;37.542;2023-09-18T14:02:18;6.57;;;1.63;;
70951;SDS011;69214;55.880;37.542;2023-09-18T14:04:44;6.95;;;1.70;;
70951;SDS011;69214;55.880;37.542;2023-09-18T14:07:11;4.57;;;1.63;;
70951;SDS011;69214;55.880;37.542;2023-09-18T14:09:38;4.70;;;1.90;;
70951;SDS011;69214;55.880;37.542;2023-09-18T14:12:05;5.53;;;1.73;;
70951;SDS011;69214;55.880;37.542;2023-09-18T14:14:33;6.75;;;1.88;;
70951;SDS011;69214;55.880;37.542;2023-09-18T14:16:59;5.18;;;1.42;;
70951;SDS011;69214;55.880;37.542;2023-09-18T14:19:25;4.27;;;1.47;;
70951;SDS011;69214;55.880;37.542;2023-09-18T14:21:51;4.88;;;1.67;;
70951;SDS011;69214;55.880;37.542;2023-09-18T14:24:17;4.78;;;1.58;;
70951;SDS011;69214;55.880;37.542;2023-09-18T14:26:50;5.88;;;1.52;;
70951;SDS011;69214;55.880;37.542;2023-09-18T14:29:17;5.90;;;1.80;;
70951;SDS011;69214;55.880;37.542;2023-09-18T14:31:43;7.65;;;1.83;;
70951;SDS011;69214;55.880;37.542;2023-09-18T14:34:09;4.13;;;1.45;;
70951;SDS011;69214;55.880;37.542;2023-09-18T14:36:35;5.28;;;1.60;;
70951;SDS011;69214;55.880;37.542;2023-09-18T14:39:05;4.80;;;1.60;;
70951;SDS011;69214;55.880;37.542;2023-09-18T14:41:37;4.50;;;1.40;;
70951;SDS011;69214;55.880;37.542;2023-09-18T14:44:05;5.55;;;1.48;;
70951;SDS011;69214;55.880;37.542;2023-09-18T14:46:34;5.15;;;1.73;;
70951;SDS011;69214;55.880;37.542;2023-09-18T14:49:06;4.47;;;1.80;;
70951;SDS011;69214;55.880;37.542;2023-09-18T14:51:33;6.18;;;1.80;;
70951;SDS011;69214;55.880;37.542;2023-09-18T14:54:01;6.23;;;1.77;;
70951;SDS011;69214;55.880;37.542;2023-09-18T14:56:30;6.10;;;1.80;;
70951;SDS011;69214;55.880;37.542;2023-09-18T14:58:56;6.45;;;1.85;;
70951;SDS011;69214;55.880;37.542;2023-09-18T15:01:23;4.60;;;1.55;;